createdAt,value
2023-03-29T00:01:41.870Z,97.18
2023-03-29T00:06:41.881Z,97.18
2023-03-29T00:11:41.872Z,97.17
2023-03-29T00:16:41.882Z,97.17
2023-03-29T00:21:41.883Z,97.16
2023-03-29T00:26:41.884Z,97.14
2023-03-29T00:31:41.885Z,97.14
2023-03-29T00:36:41.876Z,97.13
2023-03-29T00:41:41.887Z,97.12
2023-03-29T00:46:41.878Z,97.11
2023-03-29T00:51:41.889Z,97.1
2023-03-29T00:56:57.683Z,97.1
2023-03-29T01:01:41.880Z,97.08
2023-03-29T01:06:41.891Z,97.07
2023-03-29T01:11:41.882Z,97.07
2023-03-29T01:16:41.893Z,97.08
2023-03-29T01:21:41.894Z,97.07
2023-03-29T01:26:41.895Z,97.06
2023-03-29T01:31:41.905Z,97.06
2023-03-29T01:36:41.887Z,97.05
2023-03-29T01:41:41.897Z,97.04
2023-03-29T01:46:41.888Z,97.03
2023-03-29T01:51:41.899Z,97.03
2023-03-29T01:57:03.661Z,97.02
2023-03-29T02:01:41.903Z,97.02
2023-03-29T02:06:41.902Z,97.01
2023-03-29T02:11:41.893Z,97
2023-03-29T02:21:41.895Z,96.99
2023-03-29T02:26:41.905Z,96.98
2023-03-29T02:31:41.906Z,96.98
2023-03-29T02:36:41.897Z,96.98
2023-03-29T02:41:41.908Z,96.97
2023-03-29T02:46:41.899Z,96.97
2023-03-29T02:51:41.911Z,96.96
2023-03-29T02:56:53.186Z,96.96
2023-03-29T03:01:41.913Z,96.94
2023-03-29T03:06:41.914Z,96.93
2023-03-29T03:11:41.903Z,96.92
2023-03-29T03:16:41.915Z,96.92
2023-03-29T03:21:41.905Z,96.92
2023-03-29T03:26:41.916Z,96.91
2023-03-29T03:31:41.917Z,96.91
2023-03-29T03:36:41.907Z,96.92
2023-03-29T03:41:41.919Z,96.91
2023-03-29T03:46:41.910Z,96.9
2023-03-29T03:51:41.921Z,96.9
2023-03-29T03:56:56.360Z,96.89
2023-03-29T04:01:41.923Z,96.88
2023-03-29T04:06:58.401Z,96.88
2023-03-29T04:11:41.914Z,96.89
2023-03-29T04:16:41.926Z,96.88
2023-03-29T04:21:41.916Z,96.88
2023-03-29T04:26:41.928Z,96.88
2023-03-29T04:31:41.928Z,96.88
2023-03-29T04:36:41.917Z,96.88
2023-03-29T04:41:41.929Z,96.87
2023-03-29T04:46:41.920Z,96.88
2023-03-29T04:51:41.932Z,96.88
2023-03-29T04:56:41.922Z,96.88
2023-03-29T05:01:41.934Z,96.88
2023-03-29T05:06:41.934Z,96.88
2023-03-29T05:11:41.925Z,96.88
2023-03-29T05:16:41.936Z,96.88
2023-03-29T05:21:41.927Z,96.88
2023-03-29T05:26:41.946Z,96.88
2023-03-29T05:31:41.939Z,96.88
2023-03-29T05:36:41.941Z,96.88
2023-03-29T05:41:41.941Z,96.88
2023-03-29T05:46:41.932Z,96.87
2023-03-29T05:51:41.943Z,96.87
2023-03-29T05:56:41.933Z,96.86
2023-03-29T06:01:41.945Z,96.87
2023-03-29T06:06:41.945Z,96.87
2023-03-29T06:11:41.936Z,96.86
2023-03-29T06:16:41.947Z,96.87
2023-03-29T06:21:41.938Z,96.87
2023-03-29T06:26:41.950Z,96.88
2023-03-29T06:31:41.950Z,96.88
2023-03-29T06:36:41.952Z,96.88
2023-03-29T06:41:41.953Z,96.88
2023-03-29T06:46:41.943Z,96.88
2023-03-29T06:51:41.956Z,96.89
2023-03-29T06:56:41.946Z,96.88
2023-03-29T07:01:41.958Z,96.88
2023-03-29T07:06:41.958Z,96.89
2023-03-29T07:11:41.948Z,96.89
2023-03-29T07:16:41.962Z,96.89
2023-03-29T07:21:41.951Z,96.89
2023-03-29T07:26:41.963Z,96.89
2023-03-29T07:31:58.441Z,96.9
2023-03-29T07:36:41.966Z,96.91
2023-03-29T07:41:41.968Z,96.9
2023-03-29T07:46:41.957Z,96.91
2023-03-29T07:51:42.010Z,96.91
2023-03-29T07:56:41.960Z,96.91
2023-03-29T08:01:41.972Z,96.91
2023-03-29T08:06:41.972Z,96.91
2023-03-29T08:11:41.974Z,96.91
2023-03-29T08:16:41.975Z,96.91
2023-03-29T08:21:41.966Z,96.91
2023-03-29T08:26:41.978Z,96.9
2023-03-29T08:31:41.969Z,96.9
2023-03-29T08:36:41.981Z,96.91
2023-03-29T08:41:41.981Z,96.9
2023-03-29T08:46:41.973Z,96.9
2023-03-29T08:51:41.986Z,96.9
2023-03-29T08:56:41.975Z,96.9
2023-03-29T09:01:41.988Z,96.9
2023-03-29T09:06:41.989Z,96.9
2023-03-29T09:11:41.991Z,96.9
2023-03-29T09:16:41.992Z,96.9
2023-03-29T09:21:41.983Z,96.91
2023-03-29T09:26:41.995Z,96.9
2023-03-29T09:31:41.985Z,96.89
2023-03-29T09:36:41.998Z,96.89
2023-03-29T09:41:41.999Z,96.89
2023-03-29T09:46:41.989Z,96.88
2023-03-29T09:51:42.004Z,96.88
2023-03-29T09:56:41.993Z,96.87
2023-03-29T10:01:42.006Z,96.87
2023-03-29T10:06:42.006Z,96.87
2023-03-29T10:11:42.009Z,96.87
2023-03-29T10:16:42.012Z,96.87
2023-03-29T10:21:42.001Z,96.87
2023-03-29T10:26:42.079Z,96.87
2023-03-29T10:31:42.004Z,96.87
2023-03-29T10:36:42.024Z,96.87
2023-03-29T10:41:42.018Z,96.86
2023-03-29T10:46:42.021Z,96.85
2023-03-29T10:51:42.023Z,96.85
2023-03-29T10:56:42.013Z,96.86
2023-03-29T11:01:42.026Z,96.85
2023-03-29T11:06:42.017Z,96.86
2023-03-29T11:11:42.029Z,96.86
2023-03-29T11:16:42.030Z,96.86
2023-03-29T11:21:42.022Z,96.85
2023-03-29T11:26:42.036Z,96.84
2023-03-29T11:31:42.026Z,96.84
2023-03-29T11:36:42.038Z,96.83
2023-03-29T11:41:42.040Z,96.82
2023-03-29T11:46:42.042Z,96.81
2023-03-29T11:51:42.044Z,96.81
2023-03-29T12:01:42.048Z,96.79
2023-03-29T12:06:42.039Z,96.8
2023-03-29T12:11:42.052Z,96.79
2023-03-29T12:16:42.053Z,96.79
2023-03-29T12:21:42.044Z,96.8
2023-03-29T12:26:42.059Z,96.8
2023-03-29T12:31:42.049Z,96.79
2023-03-29T12:36:42.062Z,96.78
2023-03-29T12:41:42.063Z,96.77
2023-03-29T12:46:42.066Z,96.76
2023-03-29T12:51:42.091Z,96.75
2023-03-29T12:56:42.059Z,96.74
2023-03-29T13:01:42.075Z,96.73
2023-03-29T13:06:42.063Z,96.75
2023-03-29T13:11:42.076Z,96.75
2023-03-29T13:16:42.077Z,96.74
2023-03-29T13:21:42.080Z,96.74
2023-03-29T13:26:42.083Z,96.74
2023-03-29T13:31:42.073Z,96.74
2023-03-29T13:36:42.086Z,96.74
2023-03-29T13:41:42.077Z,96.75
2023-03-29T13:46:42.090Z,96.75
2023-03-29T13:51:42.091Z,96.76
2023-03-29T13:56:42.083Z,96.74
2023-03-29T14:01:42.097Z,96.73
2023-03-29T14:06:42.087Z,96.73
2023-03-29T14:11:42.100Z,96.73
2023-03-29T14:16:42.102Z,96.73
2023-03-29T14:21:42.104Z,96.72
2023-03-29T14:26:42.107Z,96.72
2023-03-29T14:31:42.097Z,96.71
2023-03-29T14:36:42.109Z,96.7
2023-03-29T14:41:42.101Z,96.7
2023-03-29T14:46:42.114Z,96.7
2023-03-29T14:51:42.115Z,96.69
2023-03-29T14:56:42.106Z,96.7
2023-03-29T15:01:42.120Z,96.7
2023-03-29T15:06:42.110Z,96.69
2023-03-29T15:11:42.122Z,96.69
2023-03-29T15:16:58.601Z,96.69
2023-03-29T15:21:42.127Z,96.69
2023-03-29T15:26:42.130Z,96.69
2023-03-29T15:31:42.120Z,96.68
2023-03-29T15:36:42.132Z,96.68
2023-03-29T15:41:42.124Z,96.67
2023-03-29T15:46:42.136Z,96.66
2023-03-29T15:51:42.137Z,96.66
2023-03-29T15:56:42.163Z,96.67
2023-03-29T16:01:42.143Z,96.66
2023-03-29T16:06:42.133Z,96.67
2023-03-29T16:11:42.145Z,96.67
2023-03-29T16:16:42.137Z,96.67
2023-03-29T16:21:42.148Z,96.67
2023-03-29T16:26:42.214Z,96.66
2023-03-29T16:31:42.142Z,96.65
2023-03-29T16:36:42.196Z,96.66
2023-03-29T16:41:42.146Z,96.66
2023-03-29T16:46:42.157Z,96.65
2023-03-29T16:51:42.159Z,96.66
2023-03-29T16:56:42.161Z,96.67
2023-03-29T17:01:42.165Z,96.66
2023-03-29T17:06:42.154Z,96.66
2023-03-29T17:11:42.166Z,96.66
2023-03-29T17:16:42.158Z,96.66
2023-03-29T17:21:42.170Z,96.66
2023-03-29T17:26:42.172Z,96.66
2023-03-29T17:31:42.163Z,96.67
2023-03-29T17:36:42.177Z,96.66
2023-03-29T17:41:42.166Z,96.66
2023-03-29T17:46:42.178Z,96.66
2023-03-29T17:51:42.180Z,96.66
2023-03-29T17:56:42.182Z,96.66
2023-03-29T18:01:42.184Z,96.67
2023-03-29T18:06:42.175Z,96.67
2023-03-29T18:11:42.187Z,96.66
2023-03-29T18:16:42.178Z,96.66
2023-03-29T18:21:42.191Z,96.66
2023-03-29T18:26:42.191Z,96.65
2023-03-29T18:31:42.183Z,96.64
2023-03-29T18:36:42.195Z,96.65
2023-03-29T18:41:42.186Z,96.64
2023-03-29T18:46:42.198Z,96.64
2023-03-29T18:51:42.200Z,96.64
2023-03-29T18:56:42.201Z,96.65
2023-03-29T19:01:42.252Z,96.65
2023-03-29T19:06:42.195Z,96.65
2023-03-29T19:11:42.206Z,96.63
2023-03-29T19:16:42.198Z,96.63
2023-03-29T19:21:42.258Z,96.63
2023-03-29T19:26:42.211Z,96.63
2023-03-29T19:31:42.213Z,96.63
2023-03-29T19:36:42.214Z,96.64
2023-03-29T19:41:42.206Z,96.64
2023-03-29T19:46:42.217Z,96.63
2023-03-29T19:51:42.209Z,96.63
2023-03-29T19:56:42.221Z,96.63
2023-03-29T20:01:42.222Z,96.62
2023-03-29T20:06:42.214Z,96.63
2023-03-29T20:11:42.225Z,96.61
2023-03-29T20:16:42.217Z,96.61
2023-03-29T20:21:42.228Z,96.61
2023-03-29T20:26:42.230Z,96.6
2023-03-29T20:31:42.231Z,96.59
2023-03-29T20:36:42.234Z,96.59
2023-03-29T20:41:42.224Z,96.59
2023-03-29T20:46:42.237Z,96.58
2023-03-29T20:51:42.227Z,96.57
2023-03-29T20:56:42.239Z,96.57
2023-03-29T21:01:42.241Z,96.56
2023-03-29T21:06:42.232Z,96.55
2023-03-29T21:11:42.243Z,96.55
2023-03-29T21:16:42.235Z,96.55
2023-03-29T21:21:42.246Z,96.54
2023-03-29T21:26:42.247Z,96.53
2023-03-29T21:31:42.249Z,96.53
2023-03-29T21:36:42.259Z,96.52
2023-03-29T21:41:42.242Z,96.52
2023-03-29T21:46:42.253Z,96.52
2023-03-29T21:51:42.244Z,96.51
2023-03-29T21:56:42.256Z,96.5
2023-03-29T22:01:42.257Z,96.49
2023-03-29T22:06:42.259Z,96.49
2023-03-29T22:11:42.260Z,96.49
2023-03-29T22:16:42.251Z,96.48
2023-03-29T22:21:42.263Z,96.48
2023-03-29T22:26:42.254Z,96.48
2023-03-29T22:31:42.266Z,96.47
2023-03-29T22:36:42.267Z,96.47
2023-03-29T22:41:42.258Z,96.47
2023-03-29T22:46:42.270Z,96.47
2023-03-29T22:51:42.261Z,96.47
2023-03-29T22:56:58.750Z,96.46
2023-03-29T23:01:42.274Z,96.46
2023-03-29T23:06:42.275Z,96.46
2023-03-29T23:11:42.277Z,96.46
2023-03-29T23:16:42.268Z,96.46
2023-03-29T23:21:42.280Z,96.45
2023-03-29T23:26:42.271Z,96.45
2023-03-29T23:31:42.282Z,96.45
2023-03-29T23:36:42.284Z,96.45
2023-03-29T23:41:42.275Z,96.45
2023-03-29T23:46:42.286Z,96.45
2023-03-29T23:51:42.278Z,96.44
2023-03-29T23:56:42.289Z,96.44
